Time;durP1;ratioP1;P1;durP2;ratioP2;P2;SDS_P1;SDS_P2;PMS_P1;PMS_P2;Temp;Humidity;BMP_temperature;BMP_pressure;BME280_temperature;BME280_humidity;BME280_pressure;Samples;Min_cycle;Max_cycle;Signal;HPM_P1;HPM_P2
2024/04/15 00:01:28;;;;;;;3.40;0.90;;;;;;;22.33;40.51;101521.88;5471373;26;20017;-73
2024/04/15 00:03:54;;;;;;;3.88;1.30;;;;;;;22.27;40.56;101518.13;5471391;26;20563;-73
2024/04/15 00:06:20;;;;;;;3.17;0.98;;;;;;;22.27;40.29;101519.94;5469750;26;20015;-73
2024/04/15 00:08:46;;;;;;;1.40;0.80;;;;;;;22.25;40.59;101525.41;5443109;26;20772;-73
2024/04/15 00:11:12;;;;;;;3.50;0.77;;;;;;;22.25;40.60;101527.25;5474555;26;20013;-73
2024/04/15 00:13:38;;;;;;;3.22;1.10;;;;;;;22.22;40.83;101520.47;5446785;26;20002;-73
2024/04/15 00:16:08;;;;;;;2.60;1.13;;;;;;;22.21;40.53;101521.47;5445602;26;20017;-74
2024/04/15 00:18:35;;;;;;;4.20;1.05;;;;;;;22.17;41.02;101512.22;5468771;26;20577;-73
2024/04/15 00:21:02;;;;;;;3.90;1.10;;;;;;;22.16;40.57;101515.88;5475491;26;20009;-74
2024/04/15 00:23:28;;;;;;;3.63;1.00;;;;;;;22.13;40.74;101499.50;5477016;26;20001;-73
2024/04/15 00:25:58;;;;;;;2.05;0.88;;;;;;;22.10;40.77;101491.91;5468334;26;19991;-72
2024/04/15 00:28:25;;;;;;;2.65;0.98;;;;;;;22.11;40.73;101489.06;5471072;26;20412;-74
2024/04/15 00:30:51;;;;;;;3.63;1.10;;;;;;;22.08;40.73;101486.75;5472015;26;19998;-73
2024/04/15 00:33:17;;;;;;;2.50;1.00;;;;;;;22.08;40.56;101480.63;5473762;26;19998;-73
2024/04/15 00:35:46;;;;;;;1.63;0.80;;;;;;;22.06;40.77;101474.69;5475877;26;20402;-73
2024/04/15 00:38:16;;;;;;;5.45;1.20;;;;;;;22.07;40.58;101471.03;5471132;26;20024;-73
2024/04/15 00:40:43;;;;;;;2.47;0.80;;;;;;;22.03;40.86;101467.88;5422277;26;19994;-74
2024/04/15 00:43:09;;;;;;;1.25;0.70;;;;;;;22.05;40.58;101465.91;5470233;26;20021;-74
2024/04/15 00:45:35;;;;;;;2.40;0.85;;;;;;;22.03;41.15;101458.09;5470189;26;19994;-73
2024/04/15 00:48:03;;;;;;;1.90;0.80;;;;;;;22.01;40.93;101444.19;5474032;26;19999;-73
2024/04/15 00:50:32;;;;;;;1.77;0.70;;;;;;;21.98;40.73;101441.91;5475057;26;20009;-74
2024/04/15 00:53:01;;;;;;;2.65;1.00;;;;;;;21.97;40.71;101440.25;5469945;26;20003;-73
2024/04/15 00:55:28;;;;;;;2.95;0.95;;;;;;;21.96;40.61;101429.84;5476215;26;20017;-73
2024/04/15 00:57:55;;;;;;;2.97;1.10;;;;;;;21.96;40.75;101428.00;5474914;26;19998;-74
2024/04/15 01:00:21;;;;;;;2.67;0.80;;;;;;;21.93;40.89;101425.72;5473617;26;20013;-73
2024/04/15 01:02:48;;;;;;;4.40;1.20;;;;;;;21.90;40.73;101420.78;5475580;26;20695;-74
2024/04/15 01:05:14;;;;;;;2.35;1.10;;;;;;;21.89;40.66;101423.56;5474526;26;20054;-75
2024/04/15 01:07:40;;;;;;;1.67;0.90;;;;;;;21.90;40.99;101423.44;5447948;26;20030;-73
2024/04/15 01:10:07;;;;;;;4.43;1.10;;;;;;;21.91;40.61;101408.34;5438120;26;20405;-73
2024/04/15 01:12:34;;;;;;;2.30;0.80;;;;;;;21.89;40.89;101402.38;5463827;26;20006;-73
2024/04/15 01:15:00;;;;;;;4.53;1.23;;;;;;;21.89;40.79;101392.59;5470367;26;20006;-73
2024/04/15 01:17:26;;;;;;;2.38;1.00;;;;;;;21.86;41.12;101394.78;5438029;26;20441;-73
2024/04/15 01:19:58;;;;;;;2.58;0.80;;;;;;;21.85;41.13;101383.34;5472851;26;19995;-74
2024/04/15 01:22:25;;;;;;;2.33;1.00;;;;;;;21.85;40.84;101387.81;5495248;25;20504;-73
2024/04/15 01:24:51;;;;;;;3.28;1.20;;;;;;;21.83;40.86;101376.59;5497114;25;20008;-74
2024/04/15 01:27:18;;;;;;;2.60;0.93;;;;;;;21.80;40.80;101369.81;5476104;26;20302;-73
2024/04/15 01:29:44;;;;;;;2.40;0.90;;;;;;;21.81;40.72;101362.69;5468927;26;19998;-73
2024/04/15 01:32:10;;;;;;;2.90;1.00;;;;;;;21.77;40.87;101350.81;5445608;26;20540;-73
2024/04/15 01:34:36;;;;;;;1.23;0.68;;;;;;;21.77;40.78;101348.97;5446069;26;20013;-73
2024/04/15 01:37:02;;;;;;;2.65;0.70;;;;;;;21.80;40.77;101345.13;5443193;26;20002;-73
2024/04/15 01:39:28;;;;;;;3.13;0.98;;;;;;;21.76;40.78;101343.84;5466347;26;20296;-73
2024/04/15 01:41:54;;;;;;;3.50;1.05;;;;;;;21.76;41.03;101338.56;5469422;26;20005;-75
2024/04/15 01:44:20;;;;;;;3.85;0.90;;;;;;;21.71;41.03;101326.63;5450629;26;20115;-73
2024/04/15 01:46:46;;;;;;;1.80;0.90;;;;;;;21.74;40.98;101324.66;5476512;26;20495;-73
2024/04/15 01:49:12;;;;;;;1.80;0.82;;;;;;;21.70;40.85;101314.38;5462283;26;19999;-73
2024/04/15 01:51:38;;;;;;;3.42;0.98;;;;;;;21.70;40.86;101318.88;5475888;26;19994;-73
2024/04/15 01:54:04;;;;;;;2.00;0.90;;;;;;;21.69;40.90;101314.56;5443385;26;20013;-73
2024/04/15 01:56:30;;;;;;;2.55;0.95;;;;;;;21.67;40.71;101306.81;5442308;26;20002;-73
2024/04/15 01:58:56;;;;;;;1.42;0.90;;;;;;;21.67;40.61;101309.44;5469047;26;20427;-74
2024/04/15 02:01:22;;;;;;;2.78;0.98;;;;;;;21.65;40.80;101303.50;5490012;25;20369;-73
2024/04/15 02:03:48;;;;;;;4.07;1.00;;;;;;;21.68;41.12;101294.38;5444028;26;19994;-74
2024/04/15 02:06:14;;;;;;;4.30;1.08;;;;;;;21.63;40.96;101294.09;5474166;26;20010;-73
2024/04/15 02:08:41;;;;;;;2.55;0.80;;;;;;;21.65;40.93;101292.91;5478136;26;20013;-73
2024/04/15 02:11:07;;;;;;;3.95;1.27;;;;;;;21.63;40.62;101289.63;5473381;26;20018;-73
2024/04/15 02:13:33;;;;;;;3.00;0.95;;;;;;;21.62;40.93;101277.38;5472604;26;20563;-74
2024/04/15 02:15:59;;;;;;;1.85;0.73;;;;;;;21.58;40.82;101273.44;5474259;26;19994;-73
2024/04/15 02:18:25;;;;;;;2.33;0.98;;;;;;;21.59;40.61;101269.78;5472656;26;19998;-73
2024/04/15 02:20:51;;;;;;;2.42;1.00;;;;;;;21.58;40.96;101270.78;5465841;26;20599;-74
2024/04/15 02:23:17;;;;;;;4.05;1.05;;;;;;;21.59;40.96;101255.72;5472368;26;20007;-73
2024/04/15 02:26:27;;;;;;;1.95;1.20;;;;;;;21.58;40.99;101252.25;5454319;26;20341;-73
2024/04/15 02:28:53;;;;;;;2.58;0.77;;;;;;;21.54;40.74;101242.16;5472147;26;20008;-73
2024/04/15 02:31:19;;;;;;;2.08;0.90;;;;;;;21.55;40.63;101236.72;5494284;25;20006;-73
2024/04/15 02:33:45;;;;;;;1.90;0.77;;;;;;;21.54;40.69;101231.56;5443728;26;19994;-73
2024/04/15 02:36:11;;;;;;;3.22;1.17;;;;;;;21.53;40.92;101228.09;5467442;26;20420;-73
2024/04/15 02:38:37;;;;;;;2.65;0.93;;;;;;;21.50;40.60;101223.16;5478766;26;19998;-74
2024/04/15 02:41:03;;;;;;;3.70;1.30;;;;;;;21.50;40.90;101220.50;5440739;26;20287;-73
2024/04/15 02:43:29;;;;;;;3.65;0.90;;;;;;;21.48;40.66;101214.56;5468389;26;20330;-73
2024/04/15 02:45:55;;;;;;;2.33;1.30;;;;;;;21.47;40.71;101209.47;5471818;26;19999;-75
2024/04/15 02:48:21;;;;;;;2.47;1.00;;;;;;;21.48;40.76;101203.97;5439396;26;20009;-73
2024/04/15 02:50:47;;;;;;;2.38;1.20;;;;;;;21.46;40.95;101189.25;5472273;26;19995;-73
2024/04/15 02:53:13;;;;;;;1.52;1.10;;;;;;;21.48;40.63;101193.38;5465286;26;20017;-73
2024/04/15 02:55:38;;;;;;;1.77;1.08;;;;;;;21.47;40.62;101199.69;5443856;26;19998;-73
2024/04/15 02:58:05;;;;;;;2.33;0.88;;;;;;;21.42;40.94;101199.41;5468429;26;20521;-73
2024/04/15 03:00:33;;;;;;;3.90;1.00;;;;;;;21.41;40.91;101195.13;5411639;26;20010;-73
2024/04/15 03:02:59;;;;;;;5.18;0.90;;;;;;;21.42;40.90;101197.59;5468824;26;20647;-74
2024/04/15 03:05:25;;;;;;;2.22;1.00;;;;;;;21.43;40.77;101190.47;5468570;26;20479;-74
2024/04/15 03:07:51;;;;;;;1.88;0.90;;;;;;;21.43;40.97;101190.47;5499647;25;19998;-73
2024/04/15 03:10:16;;;;;;;1.33;0.60;;;;;;;21.42;41.05;101183.50;5445450;26;19995;-72
2024/04/15 03:12:42;;;;;;;2.55;0.90;;;;;;;21.38;40.67;101179.59;5477036;26;20010;-74
2024/04/15 03:15:09;;;;;;;2.25;1.02;;;;;;;21.40;40.67;101173.09;5474019;26;20002;-73
2024/04/15 03:17:35;;;;;;;1.83;0.80;;;;;;;21.39;40.62;101160.03;5472523;26;19998;-74
2024/04/15 03:20:01;;;;;;;2.30;0.80;;;;;;;21.37;41.16;101164.69;5470309;26;20013;-73
2024/04/15 03:22:27;;;;;;;3.10;1.00;;;;;;;21.38;40.90;101155.75;5445165;26;20009;-73
2024/04/15 03:24:53;;;;;;;2.10;1.00;;;;;;;21.37;41.07;101148.81;5443599;26;20010;-74
2024/04/15 03:27:19;;;;;;;2.60;0.90;;;;;;;21.36;40.72;101147.97;5498826;25;19995;-73
2024/04/15 03:29:45;;;;;;;1.77;0.70;;;;;;;21.35;40.70;101141.00;5475372;26;20064;-73
2024/04/15 03:32:11;;;;;;;2.10;0.90;;;;;;;21.35;40.67;101133.06;5473974;26;19994;-72
2024/04/15 03:34:37;;;;;;;3.20;0.93;;;;;;;21.35;41.31;101126.94;5474771;26;20005;-72
2024/04/15 03:37:03;;;;;;;1.58;0.73;;;;;;;21.29;41.00;101125.84;5445657;26;20808;-72
2024/04/15 03:39:29;;;;;;;2.20;1.10;;;;;;;21.33;41.12;101121.00;5473422;26;20017;-73
2024/04/15 03:41:55;;;;;;;1.27;0.77;;;;;;;21.32;40.80;101120.19;5475214;26;19994;-73
2024/04/15 03:44:21;;;;;;;1.73;0.90;;;;;;;21.30;40.66;101108.13;5476051;26;19994;-73
2024/04/15 03:46:47;;;;;;;3.53;0.90;;;;;;;21.32;40.90;101112.25;5470548;26;20009;-73
2024/04/15 03:49:15;;;;;;;1.85;1.10;;;;;;;21.26;40.99;101096.28;5446875;26;20017;-73
2024/04/15 03:51:41;;;;;;;2.42;1.02;;;;;;;21.28;41.00;101097.72;5479853;26;20041;-73
2024/04/15 03:54:07;;;;;;;2.72;1.40;;;;;;;21.27;40.64;101096.09;5472553;26;19995;-73
2024/04/15 03:56:34;;;;;;;3.05;1.00;;;;;;;21.29;40.87;101095.91;5471160;26;20229;-72
2024/04/15 03:59:00;;;;;;;2.28;0.90;;;;;;;21.26;40.93;101093.63;5442791;26;20026;-73
2024/04/15 04:01:26;;;;;;;2.90;1.10;;;;;;;21.25;41.01;101084.84;5501719;25;19998;-73
2024/04/15 04:03:52;;;;;;;2.97;1.05;;;;;;;21.21;40.88;101078.25;5444618;26;20052;-73
2024/04/15 04:06:18;;;;;;;0.95;0.80;;;;;;;21.24;40.79;101072.63;5477424;26;20002;-73
2024/04/15 04:08:44;;;;;;;2.70;0.85;;;;;;;21.21;41.16;101072.97;5477697;26;19994;-72
2024/04/15 04:11:10;;;;;;;2.58;0.88;;;;;;;21.21;41.49;101062.38;5501684;25;20017;-73
2024/04/15 04:13:36;;;;;;;1.48;0.80;;;;;;;21.23;40.71;101051.59;5478729;26;19994;-73
2024/04/15 04:16:04;;;;;;;2.13;0.77;;;;;;;21.23;41.05;101057.69;5474281;26;20025;-72
2024/04/15 04:18:30;;;;;;;1.33;0.80;;;;;;;21.23;40.71;101055.06;5450069;26;20228;-72
2024/04/15 04:20:56;;;;;;;1.67;0.73;;;;;;;21.23;40.92;101051.59;5472956;26;19998;-72
2024/04/15 04:23:22;;;;;;;1.35;0.80;;;;;;;21.19;41.29;101037.06;5476703;26;20009;-72
2024/04/15 04:25:48;;;;;;;2.13;0.70;;;;;;;21.19;40.71;101037.91;5473831;26;20006;-73
2024/04/15 04:28:17;;;;;;;2.03;0.88;;;;;;;21.20;41.03;101039.53;5477388;26;20010;-72
2024/04/15 04:30:43;;;;;;;1.35;0.70;;;;;;;21.19;40.93;101037.91;5502327;25;20063;-72
2024/04/15 04:33:09;;;;;;;1.60;0.60;;;;;;;21.19;40.97;101032.59;5447345;26;20006;-73
2024/04/15 04:35:38;;;;;;;1.90;0.80;;;;;;;21.18;41.09;101028.28;5479574;26;19995;-73
2024/04/15 04:38:05;;;;;;;2.97;0.93;;;;;;;21.20;40.83;101025.47;5478629;26;20532;-73
2024/04/15 04:40:31;;;;;;;2.20;0.80;;;;;;;21.14;41.02;101021.72;5478376;26;20292;-73
2024/04/15 04:42:57;;;;;;;1.10;0.63;;;;;;;21.17;40.96;101021.34;5470020;26;20006;-73
2024/04/15 04:45:25;;;;;;;3.13;1.10;;;;;;;21.13;40.78;101018.25;5476519;26;20017;-72
2024/04/15 04:47:51;;;;;;;2.22;1.25;;;;;;;21.09;41.04;100998.44;5502813;25;20035;-73
2024/04/15 04:50:17;;;;;;;2.15;0.75;;;;;;;21.10;40.96;100994.78;5477604;26;20010;-73
2024/04/15 04:52:43;;;;;;;2.22;1.02;;;;;;;21.14;41.06;101005.81;5450878;26;20042;-72
2024/04/15 04:55:09;;;;;;;1.80;0.70;;;;;;;21.13;41.02;100997.06;5477595;26;20009;-73
2024/04/15 04:57:35;;;;;;;2.95;0.90;;;;;;;21.11;40.63;100988.47;5474687;26;20322;-72
2024/04/15 05:00:01;;;;;;;2.47;0.90;;;;;;;21.13;41.03;100985.66;5473279;26;20001;-72
2024/04/15 05:02:27;;;;;;;3.88;0.95;;;;;;;21.09;41.01;100971.97;5444521;26;20552;-72
2024/04/15 05:04:53;;;;;;;1.75;0.70;;;;;;;21.08;40.77;100966.84;5443622;26;20009;-72
2024/04/15 05:07:19;;;;;;;2.45;1.00;;;;;;;21.08;41.44;100965.03;5504811;25;20002;-72
2024/04/15 05:09:45;;;;;;;2.15;0.73;;;;;;;21.08;41.02;100964.19;5445903;26;20004;-71
2024/04/15 05:12:11;;;;;;;1.52;0.80;;;;;;;21.08;41.45;100958.91;5479991;26;20002;-72
2024/04/15 05:14:37;;;;;;;3.45;0.90;;;;;;;21.08;40.59;100959.72;5479577;26;20573;-74
2024/04/15 05:17:04;;;;;;;3.25;1.10;;;;;;;21.10;40.82;100964.84;5473688;26;20421;-71
2024/04/15 05:19:30;;;;;;;1.58;0.68;;;;;;;21.09;40.75;100960.53;5477790;26;19994;-74
2024/04/15 05:21:56;;;;;;;2.10;1.05;;;;;;;21.05;41.01;100952.16;5477873;26;20587;-74
2024/04/15 05:24:22;;;;;;;2.03;0.75;;;;;;;21.06;41.43;100950.31;5479518;26;19994;-75
2024/04/15 05:26:48;;;;;;;1.63;0.70;;;;;;;21.06;41.17;100945.03;5503219;25;19999;-73
2024/04/15 05:29:14;;;;;;;2.30;0.90;;;;;;;21.05;41.36;100938.91;5484542;26;20021;-74
2024/04/15 05:31:40;;;;;;;2.17;0.90;;;;;;;21.04;40.99;100928.50;5478571;26;20887;-74
2024/04/15 05:34:06;;;;;;;1.77;0.70;;;;;;;21.04;40.80;100934.63;5477343;26;19994;-74
2024/04/15 05:36:32;;;;;;;1.80;0.70;;;;;;;21.04;40.96;100925.88;5476035;26;20623;-74
2024/04/15 05:38:58;;;;;;;1.42;0.73;;;;;;;21.03;40.69;100924.22;5449166;26;20006;-74
2024/04/15 05:41:24;;;;;;;1.63;0.90;;;;;;;21.05;40.74;100922.22;5471380;26;20487;-74
2024/04/15 05:43:50;;;;;;;0.93;0.60;;;;;;;21.02;41.04;100909.34;5473321;26;19994;-75
2024/04/15 05:46:16;;;;;;;2.85;0.90;;;;;;;21.04;41.28;100909.97;5472062;26;20002;-73
2024/04/15 05:48:42;;;;;;;2.20;0.75;;;;;;;21.03;41.39;100903.88;5476061;26;20009;-73
2024/04/15 05:51:08;;;;;;;1.67;0.80;;;;;;;21.03;41.30;100897.75;5472393;26;20002;-73
2024/04/15 05:53:34;;;;;;;3.47;1.15;;;;;;;21.03;41.45;100900.41;5465189;26;20322;-72
2024/04/15 05:56:00;;;;;;;1.98;1.00;;;;;;;21.01;41.12;100900.59;5465565;26;20002;-73
2024/04/15 05:58:26;;;;;;;3.05;0.90;;;;;;;21.01;41.01;100900.59;5469491;26;20013;-72
2024/04/15 06:00:52;;;;;;;2.38;0.90;;;;;;;21.00;40.86;100895.44;5439394;26;20480;-74
2024/04/15 06:03:18;;;;;;;1.98;0.88;;;;;;;21.01;41.05;100903.25;5471244;26;19998;-73
2024/04/15 06:05:44;;;;;;;2.13;1.00;;;;;;;21.01;41.00;100894.47;5470541;26;20401;-74
2024/04/15 06:08:10;;;;;;;1.52;0.80;;;;;;;21.00;40.89;100898.91;5471093;26;20017;-72
2024/04/15 06:10:36;;;;;;;2.65;0.70;;;;;;;21.01;40.88;100887.34;5468137;26;19991;-73
2024/04/15 06:13:02;;;;;;;2.53;0.80;;;;;;;21.01;40.73;100892.66;5467211;26;20009;-74
2024/04/15 06:15:36;;;;;;;2.92;0.90;;;;;;;21.00;41.15;100887.50;5472745;26;20006;-74
2024/04/15 06:18:02;;;;;;;1.27;0.60;;;;;;;21.01;41.05;100883.88;5469682;26;20012;-74
2024/04/15 06:20:28;;;;;;;1.42;0.80;;;;;;;20.99;41.00;100873.44;5443371;26;20002;-73
2024/04/15 06:22:54;;;;;;;2.85;0.80;;;;;;;21.01;40.88;100873.28;5439024;26;19995;-74
2024/04/15 06:25:20;;;;;;;3.10;1.23;;;;;;;20.78;41.15;100871.56;5466658;26;19995;-74
2024/04/15 06:27:46;;;;;;;2.53;0.98;;;;;;;20.93;40.70;100860.97;5470325;26;20614;-74
2024/04/15 06:30:12;;;;;;;3.00;0.90;;;;;;;20.97;40.86;100856.94;5465464;26;20007;-74
2024/04/15 06:32:38;;;;;;;2.72;0.90;;;;;;;20.97;40.88;100848.19;5407002;26;20014;-74
2024/04/15 06:35:04;;;;;;;2.60;1.00;;;;;;;20.96;41.00;100849.19;5462199;26;19991;-73
2024/04/15 06:37:30;;;;;;;4.97;0.90;;;;;;;21.00;40.89;100838.03;5497479;25;19998;-68
2024/04/15 06:39:56;;;;;;;3.30;0.95;;;;;;;21.00;40.86;100831.91;5434800;26;20429;-69
2024/04/15 06:42:22;;;;;;;3.55;1.10;;;;;;;21.02;41.08;100832.56;5437073;26;20007;-69
2024/04/15 06:44:48;;;;;;;3.88;1.00;;;;;;;21.00;40.78;100821.31;5468416;26;20043;-68
2024/04/15 06:47:14;;;;;;;3.72;0.98;;;;;;;21.01;41.47;100818.53;5467608;26;20017;-68
2024/04/15 06:49:40;;;;;;;3.08;1.02;;;;;;;21.21;40.90;100809.94;5467018;26;20075;-69
2024/04/15 06:52:06;;;;;;;2.17;0.90;;;;;;;21.33;40.62;100803.16;5473609;26;19998;-68
2024/04/15 06:54:36;;;;;;;3.10;0.82;;;;;;;21.41;40.48;100798.56;5472052;26;20133;-69
2024/04/15 06:57:02;;;;;;;3.25;1.00;;;;;;;21.48;40.21;100787.19;5470303;26;20171;-70
2024/04/15 06:59:28;;;;;;;2.65;1.10;;;;;;;21.53;39.81;100788.25;5465861;26;20098;-70
2024/04/15 07:01:54;;;;;;;3.78;1.10;;;;;;;21.45;40.63;100776.97;5465206;26;19995;-70
2024/04/15 07:04:20;;;;;;;2.08;0.90;;;;;;;21.47;40.49;100785.56;5465017;26;20002;-69
2024/04/15 07:06:46;;;;;;;3.88;0.95;;;;;;;21.46;40.42;100771.50;5458354;26;20002;-70
2024/04/15 07:09:12;;;;;;;1.90;0.85;;;;;;;21.50;40.32;100772.72;5465558;26;20013;-68
2024/04/15 07:11:38;;;;;;;2.08;1.00;;;;;;;21.50;40.47;100763.97;5464204;26;20002;-70
2024/04/15 07:14:04;;;;;;;3.65;1.35;;;;;;;21.51;40.51;100760.31;5464084;26;20013;-70
2024/04/15 07:16:30;;;;;;;3.83;1.17;;;;;;;21.50;40.33;100756.84;5460152;26;20076;-68
2024/04/15 07:18:56;;;;;;;3.13;1.02;;;;;;;21.58;40.40;100758.53;5465051;26;20341;-68
2024/04/15 07:21:25;;;;;;;4.30;1.23;;;;;;;21.62;40.00;100751.84;5471049;26;19990;-68
2024/04/15 07:23:52;;;;;;;2.03;1.02;;;;;;;21.63;40.06;100748.19;5472001;26;19999;-67
2024/04/15 07:26:18;;;;;;;3.17;1.08;;;;;;;21.66;39.67;100745.94;5474919;26;20016;-68
2024/04/15 07:28:44;;;;;;;2.45;1.10;;;;;;;21.65;40.06;100735.53;5473963;26;20013;-68
2024/04/15 07:31:10;;;;;;;3.30;1.08;;;;;;;21.63;39.65;100725.16;5474294;26;19994;-68
2024/04/15 07:33:36;;;;;;;3.35;1.30;;;;;;;21.62;39.78;100725.34;5443484;26;19998;-68
2024/04/15 07:36:03;;;;;;;2.38;1.10;;;;;;;21.56;39.42;100711.03;5473936;26;20013;-68
2024/04/15 07:38:29;;;;;;;2.38;0.90;;;;;;;21.59;39.68;100709.84;5473332;26;19998;-68
2024/04/15 07:40:59;;;;;;;3.60;1.17;;;;;;;21.57;39.91;100706.56;5469006;26;19995;-68
2024/04/15 07:43:25;;;;;;;3.20;1.20;;;;;;;21.56;39.36;100695.16;5474111;26;20010;-68
2024/04/15 07:45:51;;;;;;;2.88;1.00;;;;;;;21.57;39.26;100701.25;5474633;26;20740;-68
2024/04/15 07:48:17;;;;;;;2.88;1.00;;;;;;;21.55;39.82;100701.47;5473514;26;20010;-68
2024/04/15 07:50:43;;;;;;;2.05;0.93;;;;;;;21.55;39.43;100687.41;5474685;26;20403;-68
2024/04/15 07:53:09;;;;;;;3.38;1.23;;;;;;;21.55;39.70;100696.16;5468380;26;20473;-69
2024/04/15 07:55:35;;;;;;;3.72;1.00;;;;;;;21.57;39.49;100694.13;5476862;26;20010;-69
2024/04/15 07:58:01;;;;;;;4.35;1.17;;;;;;;21.55;39.49;100674.16;5468655;26;20046;-69
2024/04/15 08:00:27;;;;;;;2.63;1.00;;;;;;;21.57;39.34;100672.94;5475357;26;20014;-68
2024/04/15 08:02:53;;;;;;;6.68;1.30;;;;;;;21.56;39.13;100671.31;5472800;26;20005;-69
2024/04/15 08:05:20;;;;;;;3.20;1.00;;;;;;;21.54;39.48;100657.41;5453009;26;19998;-68
2024/04/15 08:07:46;;;;;;;2.05;1.08;;;;;;;21.54;39.52;100659.22;5464085;26;20091;-68
2024/04/15 08:10:12;;;;;;;2.88;1.10;;;;;;;21.52;39.38;100654.13;5456224;26;20398;-68
2024/04/15 08:12:38;;;;;;;2.58;1.02;;;;;;;21.50;39.44;100650.88;5469269;26;20002;-68
2024/04/15 08:15:04;;;;;;;7.25;1.50;;;;;;;21.54;39.07;100644.16;5466775;26;19995;-69
2024/04/15 08:17:30;;;;;;;3.75;1.00;;;;;;;21.53;39.30;100634.56;5438574;26;20129;-68
2024/04/15 08:19:56;;;;;;;3.42;1.08;;;;;;;21.50;38.88;100632.31;5465839;26;19994;-68
2024/04/15 08:22:22;;;;;;;2.63;1.10;;;;;;;21.53;38.79;100631.91;5442163;26;20796;-69
2024/04/15 08:24:49;;;;;;;1.60;0.85;;;;;;;21.50;39.43;100618.25;5470106;26;20233;-69
2024/04/15 08:27:19;;;;;;;3.00;1.15;;;;;;;21.53;39.34;100607.25;5467151;26;20023;-69
2024/04/15 08:29:45;;;;;;;7.05;1.15;;;;;;;21.37;39.74;100596.00;5465772;26;20084;-68
2024/04/15 08:32:11;;;;;;;2.45;1.38;;;;;;;21.42;40.05;100590.91;5467137;26;20932;-68
2024/04/15 08:34:37;;;;;;;3.15;1.65;;;;;;;21.48;39.97;100588.50;5465677;26;20025;-67
2024/04/15 08:37:04;;;;;;;4.00;1.02;;;;;;;21.46;40.08;100582.56;5469445;26;20283;-67
2024/04/15 08:39:32;;;;;;;2.40;1.02;;;;;;;21.49;40.14;100571.59;5466890;26;20002;-68
2024/04/15 08:42:20;;;;;;;2.53;1.20;;;;;;;21.48;40.11;100552.22;5465125;26;20013;-68
2024/04/15 08:44:48;;;;;;;3.55;1.00;;;;;;;21.46;40.15;100548.94;5467112;26;20018;-68
2024/04/15 08:47:29;;;;;;;2.90;1.00;;;;;;;21.52;39.88;100548.16;5466432;26;20011;-69
2024/04/15 08:49:56;;;;;;;3.40;1.10;;;;;;;21.55;40.26;100539.03;5456759;26;20002;-67
2024/04/15 08:52:22;;;;;;;2.65;1.20;;;;;;;21.56;39.94;100544.13;5461300;26;20355;-67
2024/04/15 08:54:48;;;;;;;2.50;0.93;;;;;;;21.53;40.39;100528.59;5459367;26;20018;-67
2024/04/15 08:57:17;;;;;;;3.50;1.10;;;;;;;21.57;40.32;100526.38;5413756;26;20010;-68
2024/04/15 08:59:45;;;;;;;2.22;1.15;;;;;;;21.56;39.77;100522.94;5472029;26;20008;-68
2024/04/15 09:02:18;;;;;;;3.70;1.25;;;;;;;21.56;40.10;100520.28;5469448;26;19998;-67
2024/04/15 09:04:46;;;;;;;3.20;1.63;;;;;;;21.56;40.11;100512.31;5471970;26;20361;-68
2024/04/15 09:07:12;;;;;;;3.40;1.00;;;;;;;21.55;40.15;100512.53;5460633;26;20426;-68
2024/04/15 09:09:38;;;;;;;2.72;1.00;;;;;;;21.54;40.09;100513.50;5464508;26;20053;-68
2024/04/15 09:12:04;;;;;;;2.60;0.95;;;;;;;21.51;40.21;100498.84;5471700;26;20075;-67
2024/04/15 09:14:30;;;;;;;2.22;1.10;;;;;;;21.51;39.96;100498.03;5463778;26;20014;-67
2024/04/15 09:16:56;;;;;;;2.58;1.08;;;;;;;21.52;40.32;100483.75;5466904;26;20496;-67
2024/04/15 09:19:23;;;;;;;2.15;0.90;;;;;;;21.54;40.43;100476.41;5492574;25;20251;-67
2024/04/15 09:21:49;;;;;;;3.15;1.17;;;;;;;21.53;39.87;100475.59;5469853;26;20395;-67
2024/04/15 09:24:15;;;;;;;3.38;1.00;;;;;;;21.53;40.17;100472.13;5469201;26;20006;-67
2024/04/15 09:26:41;;;;;;;1.52;0.88;;;;;;;21.54;40.07;100461.34;5463927;26;19998;-67
2024/04/15 09:29:07;;;;;;;2.17;1.13;;;;;;;21.51;39.91;100450.34;5470442;26;20009;-68
2024/04/15 09:31:33;;;;;;;4.07;1.13;;;;;;;21.54;40.11;100449.94;5477399;26;20063;-67
2024/04/15 09:33:59;;;;;;;2.17;0.95;;;;;;;21.54;39.82;100450.75;5461544;26;19995;-68
2024/04/15 09:36:30;;;;;;;4.03;1.35;;;;;;;21.50;39.90;100425.69;5464556;26;20017;-67
2024/04/15 09:38:57;;;;;;;2.65;1.05;;;;;;;21.54;39.67;100424.25;5466339;26;20017;-68
2024/04/15 09:41:23;;;;;;;1.50;0.90;;;;;;;21.55;39.65;100431.22;5470444;26;20010;-67
2024/04/15 09:43:53;;;;;;;2.78;0.93;;;;;;;21.53;40.15;100422.63;5462821;26;20002;-67
2024/04/15 09:46:20;;;;;;;2.53;0.77;;;;;;;21.54;40.00;100420.78;5468911;26;20002;-67
2024/04/15 09:48:49;;;;;;;1.95;1.20;;;;;;;21.53;39.58;100416.50;5438214;26;20090;-68
2024/04/15 09:51:23;;;;;;;1.40;0.90;;;;;;;21.54;40.12;100404.88;5470594;26;20418;-68
2024/04/15 09:53:53;;;;;;;3.28;1.13;;;;;;;21.50;39.75;100387.78;5474070;26;20088;-67
2024/04/15 09:56:29;;;;;;;1.27;0.80;;;;;;;21.53;39.97;100412.03;5440594;26;20010;-67
2024/04/15 09:58:57;;;;;;;1.30;0.90;;;;;;;21.51;39.98;100379.63;5467991;26;19994;-67
2024/04/15 10:01:31;;;;;;;3.35;1.05;;;;;;;21.51;39.55;100366.38;5439513;26;20050;-67
2024/04/15 10:04:01;;;;;;;3.63;1.10;;;;;;;21.53;39.73;100367.00;5469072;26;20012;-67
2024/04/15 10:06:36;;;;;;;1.73;0.85;;;;;;;21.49;39.78;100351.69;5472480;26;20010;-68
2024/04/15 10:09:03;;;;;;;4.80;1.13;;;;;;;21.50;39.81;100362.09;5468555;26;20005;-67
2024/04/15 10:11:30;;;;;;;3.22;1.17;;;;;;;21.51;39.73;100347.81;5466389;26;19997;-67
2024/04/15 10:13:59;;;;;;;1.92;0.80;;;;;;;21.49;39.58;100338.47;5474011;26;20009;-67
2024/04/15 10:16:26;;;;;;;2.25;1.15;;;;;;;21.48;39.99;100316.44;5468763;26;20108;-68
2024/04/15 10:18:58;;;;;;;3.17;1.33;;;;;;;21.48;40.03;100313.00;5471229;26;19994;-67
2024/04/15 10:21:24;;;;;;;1.73;1.00;;;;;;;21.49;40.01;100302.19;5475058;26;19998;-68
2024/04/15 10:23:50;;;;;;;3.00;1.27;;;;;;;21.48;39.84;100297.09;5462330;26;19998;-68
2024/04/15 10:26:16;;;;;;;2.47;1.10;;;;;;;21.48;40.23;100295.25;5470775;26;20037;-67
2024/04/15 10:28:42;;;;;;;1.70;0.80;;;;;;;21.46;39.75;100281.41;5473004;26;20002;-68
2024/04/15 10:31:13;;;;;;;1.45;1.00;;;;;;;21.48;40.07;100275.91;5477562;26;19994;-68
2024/04/15 10:33:52;;;;;;;3.53;1.33;;;;;;;21.48;39.69;100275.91;5470538;26;20015;-66
2024/04/15 10:36:29;;;;;;;2.08;1.05;;;;;;;21.49;39.81;100273.03;5472749;26;20791;-66
2024/04/15 10:39:04;;;;;;;2.25;1.35;;;;;;;21.45;39.77;100263.06;5469568;26;20002;-66
2024/04/15 10:41:30;;;;;;;2.15;1.17;;;;;;;21.48;39.66;100260.00;5448453;26;20020;-67
2024/04/15 10:43:56;;;;;;;3.60;1.00;;;;;;;21.45;40.22;100249.81;5469468;26;19998;-67
2024/04/15 10:46:22;;;;;;;2.40;0.88;;;;;;;21.45;40.09;100248.00;5474982;26;20005;-69
2024/04/15 10:48:48;;;;;;;2.28;1.08;;;;;;;21.41;40.19;100231.69;5474684;26;20050;-67
2024/04/15 10:51:14;;;;;;;2.58;0.90;;;;;;;21.42;39.94;100238.63;5469182;26;20398;-67
2024/04/15 10:53:41;;;;;;;2.33;1.20;;;;;;;21.42;39.63;100225.38;5471692;26;20006;-67
2024/04/15 10:56:09;;;;;;;1.67;0.80;;;;;;;21.40;39.87;100224.78;5471888;26;20060;-68
2024/04/15 10:58:36;;;;;;;2.75;1.20;;;;;;;21.38;39.73;100226.81;5472257;26;20327;-68
2024/04/15 11:01:03;;;;;;;2.45;1.00;;;;;;;21.37;39.72;100219.88;5469590;26;20021;-68
2024/04/15 11:03:29;;;;;;;2.75;1.00;;;;;;;21.38;40.20;100208.28;5468592;26;19998;-67
2024/04/15 11:05:56;;;;;;;1.42;0.85;;;;;;;21.39;39.97;100201.13;5473288;26;19998;-68
2024/04/15 11:08:22;;;;;;;2.33;1.00;;;;;;;21.34;40.16;100174.44;5465356;26;20048;-69
2024/04/15 11:10:48;;;;;;;3.20;1.10;;;;;;;21.36;39.76;100169.75;5470465;26;20002;-68
2024/04/15 11:13:15;;;;;;;2.85;1.05;;;;;;;21.39;39.88;100170.16;5439907;26;20013;-67
2024/04/15 11:15:41;;;;;;;1.90;0.90;;;;;;;21.36;39.68;100140.63;5467108;26;20013;-69
2024/04/15 11:18:14;;;;;;;1.15;0.80;;;;;;;21.37;40.22;100155.50;5464145;26;19998;-69
2024/04/15 11:20:41;;;;;;;3.17;1.10;;;;;;;21.37;40.15;100158.97;5467749;26;20009;-68
2024/04/15 11:23:07;;;;;;;1.75;1.00;;;;;;;21.37;40.07;100155.50;5474283;26;19998;-69